sensor_id;sensor_type;location;lat;lon;timestamp;P1;durP1;ratioP1;P2;durP2;ratioP2
30934;SDS011;51033;42.648;23.292;2023-04-01T00:00:56;10.77;;;3.33;;
30934;SDS011;51033;42.648;23.292;2023-04-01T00:03:24;9.85;;;5.97;;
30934;SDS011;51033;42.648;23.292;2023-04-01T00:05:51;16.20;;;6.82;;
30934;SDS011;51033;42.648;23.292;2023-04-01T00:08:18;14.20;;;8.38;;
30934;SDS011;51033;42.648;23.292;2023-04-01T00:10:43;14.20;;;7.63;;
30934;SDS011;51033;42.648;23.292;2023-04-01T00:13:09;14.30;;;8.18;;
30934;SDS011;51033;42.648;23.292;2023-04-01T00:15:35;17.85;;;7.78;;
30934;SDS011;51033;42.648;23.292;2023-04-01T00:18:01;23.05;;;9.73;;
30934;SDS011;51033;42.648;23.292;2023-04-01T00:20:26;18.58;;;9.75;;
30934;SDS011;51033;42.648;23.292;2023-04-01T00:22:52;15.75;;;10.00;;
30934;SDS011;51033;42.648;23.292;2023-04-01T00:25:18;17.98;;;10.07;;
30934;SDS011;51033;42.648;23.292;2023-04-01T00:27:43;20.90;;;12.02;;
30934;SDS011;51033;42.648;23.292;2023-04-01T00:30:09;19.35;;;10.80;;
30934;SDS011;51033;42.648;23.292;2023-04-01T00:32:36;18.50;;;10.02;;
30934;SDS011;51033;42.648;23.292;2023-04-01T00:35:02;17.70;;;8.98;;
30934;SDS011;51033;42.648;23.292;2023-04-01T00:37:28;18.77;;;8.98;;
30934;SDS011;51033;42.648;23.292;2023-04-01T00:39:54;19.55;;;9.88;;
30934;SDS011;51033;42.648;23.292;2023-04-01T00:42:19;21.70;;;9.70;;
30934;SDS011;51033;42.648;23.292;2023-04-01T00:44:47;18.45;;;10.30;;
30934;SDS011;51033;42.648;23.292;2023-04-01T00:47:15;24.77;;;10.45;;
30934;SDS011;51033;42.648;23.292;2023-04-01T00:49:42;15.35;;;9.60;;
30934;SDS011;51033;42.648;23.292;2023-04-01T00:52:11;18.73;;;10.80;;
30934;SDS011;51033;42.648;23.292;2023-04-01T00:54:40;16.17;;;9.48;;
30934;SDS011;51033;42.648;23.292;2023-04-01T00:57:09;17.85;;;9.43;;
30934;SDS011;51033;42.648;23.292;2023-04-01T00:59:41;18.33;;;10.05;;
30934;SDS011;51033;42.648;23.292;2023-04-01T01:02:10;16.08;;;8.32;;
30934;SDS011;51033;42.648;23.292;2023-04-01T01:04:37;12.48;;;8.77;;
30934;SDS011;51033;42.648;23.292;2023-04-01T01:09:59;8.43;;;6.25;;
30934;SDS011;51033;42.648;23.292;2023-04-01T01:26:34;17.08;;;7.82;;
30934;SDS011;51033;42.648;23.292;2023-04-01T01:32:28;14.82;;;7.18;;
30934;SDS011;51033;42.648;23.292;2023-04-01T01:35:07;12.55;;;6.40;;
30934;SDS011;51033;42.648;23.292;2023-04-01T01:38:03;8.23;;;4.95;;
30934;SDS011;51033;42.648;23.292;2023-04-01T01:40:33;9.13;;;5.47;;
30934;SDS011;51033;42.648;23.292;2023-04-01T01:43:05;12.27;;;5.03;;
30934;SDS011;51033;42.648;23.292;2023-04-01T01:45:34;11.38;;;4.90;;
30934;SDS011;51033;42.648;23.292;2023-04-01T01:48:03;12.55;;;4.97;;
30934;SDS011;51033;42.648;23.292;2023-04-01T01:50:31;7.78;;;4.63;;
30934;SDS011;51033;42.648;23.292;2023-04-01T01:53:05;9.07;;;4.65;;
30934;SDS011;51033;42.648;23.292;2023-04-01T01:55:37;9.40;;;5.50;;
30934;SDS011;51033;42.648;23.292;2023-04-01T02:00:46;14.38;;;5.28;;
30934;SDS011;51033;42.648;23.292;2023-04-01T02:03:26;8.30;;;5.25;;
30934;SDS011;51033;42.648;23.292;2023-04-01T02:05:55;7.65;;;5.00;;
30934;SDS011;51033;42.648;23.292;2023-04-01T02:08:24;12.60;;;5.43;;
30934;SDS011;51033;42.648;23.292;2023-04-01T02:10:57;12.77;;;6.07;;
30934;SDS011;51033;42.648;23.292;2023-04-01T02:14:13;11.20;;;5.22;;
30934;SDS011;51033;42.648;23.292;2023-04-01T02:16:28;11.77;;;5.20;;
30934;SDS011;51033;42.648;23.292;2023-04-01T02:21:27;15.85;;;5.38;;
30934;SDS011;51033;42.648;23.292;2023-04-01T02:23:56;9.05;;;4.80;;
30934;SDS011;51033;42.648;23.292;2023-04-01T02:26:24;14.38;;;5.50;;
30934;SDS011;51033;42.648;23.292;2023-04-01T02:28:52;14.27;;;4.97;;
30934;SDS011;51033;42.648;23.292;2023-04-01T02:31:18;10.25;;;5.20;;
30934;SDS011;51033;42.648;23.292;2023-04-01T02:33:44;11.70;;;4.65;;
30934;SDS011;51033;42.648;23.292;2023-04-01T02:36:14;9.63;;;4.28;;
30934;SDS011;51033;42.648;23.292;2023-04-01T02:38:41;11.15;;;4.80;;
30934;SDS011;51033;42.648;23.292;2023-04-01T02:41:09;13.43;;;5.43;;
30934;SDS011;51033;42.648;23.292;2023-04-01T02:43:35;13.05;;;4.70;;
30934;SDS011;51033;42.648;23.292;2023-04-01T02:46:00;10.68;;;5.10;;
30934;SDS011;51033;42.648;23.292;2023-04-01T02:48:27;12.80;;;5.25;;
30934;SDS011;51033;42.648;23.292;2023-04-01T02:50:53;11.30;;;4.97;;
30934;SDS011;51033;42.648;23.292;2023-04-01T02:53:18;12.02;;;4.68;;
30934;SDS011;51033;42.648;23.292;2023-04-01T02:55:44;6.97;;;5.00;;
30934;SDS011;51033;42.648;23.292;2023-04-01T02:58:10;7.55;;;4.20;;
30934;SDS011;51033;42.648;23.292;2023-04-01T03:00:35;8.50;;;4.35;;
30934;SDS011;51033;42.648;23.292;2023-04-01T03:03:01;8.65;;;4.85;;
30934;SDS011;51033;42.648;23.292;2023-04-01T03:05:27;11.98;;;4.75;;
30934;SDS011;51033;42.648;23.292;2023-04-01T03:07:53;7.90;;;4.97;;
30934;SDS011;51033;42.648;23.292;2023-04-01T03:10:18;8.43;;;4.10;;
30934;SDS011;51033;42.648;23.292;2023-04-01T03:12:43;9.63;;;4.35;;
30934;SDS011;51033;42.648;23.292;2023-04-01T03:15:10;10.30;;;4.47;;
30934;SDS011;51033;42.648;23.292;2023-04-01T03:17:38;9.43;;;4.53;;
30934;SDS011;51033;42.648;23.292;2023-04-01T03:20:04;8.70;;;5.45;;
30934;SDS011;51033;42.648;23.292;2023-04-01T03:22:31;11.48;;;5.22;;
30934;SDS011;51033;42.648;23.292;2023-04-01T03:24:56;7.40;;;4.47;;
30934;SDS011;51033;42.648;23.292;2023-04-01T03:27:21;8.15;;;5.53;;
30934;SDS011;51033;42.648;23.292;2023-04-01T03:29:48;11.15;;;5.28;;
30934;SDS011;51033;42.648;23.292;2023-04-01T03:32:13;10.95;;;3.50;;
30934;SDS011;51033;42.648;23.292;2023-04-01T03:34:39;7.55;;;4.15;;
30934;SDS011;51033;42.648;23.292;2023-04-01T03:37:04;5.57;;;2.67;;
30934;SDS011;51033;42.648;23.292;2023-04-01T03:39:30;6.70;;;2.65;;
30934;SDS011;51033;42.648;23.292;2023-04-01T03:41:56;6.55;;;3.63;;
30934;SDS011;51033;42.648;23.292;2023-04-01T03:44:21;15.10;;;5.07;;
30934;SDS011;51033;42.648;23.292;2023-04-01T03:46:47;13.13;;;5.13;;
30934;SDS011;51033;42.648;23.292;2023-04-01T03:49:12;10.52;;;5.13;;
30934;SDS011;51033;42.648;23.292;2023-04-01T03:51:38;7.95;;;4.07;;
30934;SDS011;51033;42.648;23.292;2023-04-01T03:54:04;10.57;;;4.50;;
30934;SDS011;51033;42.648;23.292;2023-04-01T03:56:30;6.82;;;4.22;;
30934;SDS011;51033;42.648;23.292;2023-04-01T03:58:56;10.68;;;4.35;;
30934;SDS011;51033;42.648;23.292;2023-04-01T04:01:22;5.88;;;3.72;;
30934;SDS011;51033;42.648;23.292;2023-04-01T04:03:48;8.50;;;4.05;;
30934;SDS011;51033;42.648;23.292;2023-04-01T04:06:15;6.50;;;3.67;;
30934;SDS011;51033;42.648;23.292;2023-04-01T04:08:41;7.22;;;3.45;;
30934;SDS011;51033;42.648;23.292;2023-04-01T04:11:07;7.93;;;3.10;;
30934;SDS011;51033;42.648;23.292;2023-04-01T04:13:33;7.53;;;3.70;;
30934;SDS011;51033;42.648;23.292;2023-04-01T04:15:58;5.82;;;4.18;;
30934;SDS011;51033;42.648;23.292;2023-04-01T04:18:24;8.00;;;3.22;;
30934;SDS011;51033;42.648;23.292;2023-04-01T04:20:49;9.82;;;3.13;;
30934;SDS011;51033;42.648;23.292;2023-04-01T04:23:16;6.03;;;3.08;;
30934;SDS011;51033;42.648;23.292;2023-04-01T04:28:24;5.03;;;2.30;;
30934;SDS011;51033;42.648;23.292;2023-04-01T04:30:51;5.28;;;3.35;;
30934;SDS011;51033;42.648;23.292;2023-04-01T04:33:16;9.88;;;4.13;;
30934;SDS011;51033;42.648;23.292;2023-04-01T04:35:42;8.95;;;3.65;;
30934;SDS011;51033;42.648;23.292;2023-04-01T04:38:07;11.63;;;4.13;;
30934;SDS011;51033;42.648;23.292;2023-04-01T04:40:33;7.53;;;4.22;;
30934;SDS011;51033;42.648;23.292;2023-04-01T04:43:00;14.00;;;6.53;;
30934;SDS011;51033;42.648;23.292;2023-04-01T04:45:25;12.90;;;7.30;;
30934;SDS011;51033;42.648;23.292;2023-04-01T04:47:51;13.50;;;6.93;;
30934;SDS011;51033;42.648;23.292;2023-04-01T04:50:16;11.88;;;6.38;;
30934;SDS011;51033;42.648;23.292;2023-04-01T04:52:42;15.02;;;6.72;;
30934;SDS011;51033;42.648;23.292;2023-04-01T04:55:07;12.63;;;7.15;;
30934;SDS011;51033;42.648;23.292;2023-04-01T04:57:33;12.20;;;6.53;;
30934;SDS011;51033;42.648;23.292;2023-04-01T04:59:58;10.45;;;6.18;;
30934;SDS011;51033;42.648;23.292;2023-04-01T05:02:23;14.73;;;6.60;;
30934;SDS011;51033;42.648;23.292;2023-04-01T05:04:49;11.55;;;6.93;;
30934;SDS011;51033;42.648;23.292;2023-04-01T05:07:14;13.07;;;7.10;;
30934;SDS011;51033;42.648;23.292;2023-04-01T05:09:40;14.85;;;6.65;;
30934;SDS011;51033;42.648;23.292;2023-04-01T05:12:05;20.10;;;7.18;;
30934;SDS011;51033;42.648;23.292;2023-04-01T05:14:31;12.82;;;7.57;;
30934;SDS011;51033;42.648;23.292;2023-04-01T05:16:56;9.32;;;6.53;;
30934;SDS011;51033;42.648;23.292;2023-04-01T05:19:21;15.57;;;7.07;;
30934;SDS011;51033;42.648;23.292;2023-04-01T05:21:47;9.27;;;5.47;;
30934;SDS011;51033;42.648;23.292;2023-04-01T05:24:12;12.13;;;6.32;;
30934;SDS011;51033;42.648;23.292;2023-04-01T05:26:37;14.75;;;5.97;;
30934;SDS011;51033;42.648;23.292;2023-04-01T05:29:03;13.23;;;6.95;;
30934;SDS011;51033;42.648;23.292;2023-04-01T05:31:29;17.90;;;12.00;;
30934;SDS011;51033;42.648;23.292;2023-04-01T05:33:55;14.52;;;10.32;;
30934;SDS011;51033;42.648;23.292;2023-04-01T05:36:21;18.27;;;7.78;;
30934;SDS011;51033;42.648;23.292;2023-04-01T05:38:46;15.57;;;8.85;;
30934;SDS011;51033;42.648;23.292;2023-04-01T05:41:12;14.50;;;9.55;;
30934;SDS011;51033;42.648;23.292;2023-04-01T05:43:39;16.92;;;9.60;;
30934;SDS011;51033;42.648;23.292;2023-04-01T05:46:04;14.55;;;7.65;;
30934;SDS011;51033;42.648;23.292;2023-04-01T05:48:30;13.82;;;8.48;;
30934;SDS011;51033;42.648;23.292;2023-04-01T05:50:55;17.20;;;7.72;;
30934;SDS011;51033;42.648;23.292;2023-04-01T05:53:21;16.13;;;8.02;;
30934;SDS011;51033;42.648;23.292;2023-04-01T05:55:47;17.10;;;8.43;;
30934;SDS011;51033;42.648;23.292;2023-04-01T05:58:12;17.58;;;9.80;;
30934;SDS011;51033;42.648;23.292;2023-04-01T06:00:38;11.90;;;8.20;;
30934;SDS011;51033;42.648;23.292;2023-04-01T06:03:03;14.40;;;9.35;;
30934;SDS011;51033;42.648;23.292;2023-04-01T06:05:29;18.95;;;8.60;;
30934;SDS011;51033;42.648;23.292;2023-04-01T06:08:05;13.27;;;8.77;;
30934;SDS011;51033;42.648;23.292;2023-04-01T06:19:07;14.85;;;7.05;;
30934;SDS011;51033;42.648;23.292;2023-04-01T06:27:07;10.90;;;6.78;;
30934;SDS011;51033;42.648;23.292;2023-04-01T06:35:11;11.48;;;5.40;;
30934;SDS011;51033;42.648;23.292;2023-04-01T06:40:47;10.98;;;5.63;;
30934;SDS011;51033;42.648;23.292;2023-04-01T06:52:02;10.00;;;5.25;;
30934;SDS011;51033;42.648;23.292;2023-04-01T06:54:40;8.63;;;5.07;;
30934;SDS011;51033;42.648;23.292;2023-04-01T06:59:59;15.70;;;4.90;;
30934;SDS011;51033;42.648;23.292;2023-04-01T07:02:38;10.63;;;4.80;;
30934;SDS011;51033;42.648;23.292;2023-04-01T07:05:15;13.00;;;4.68;;
30934;SDS011;51033;42.648;23.292;2023-04-01T07:07:44;9.82;;;4.60;;
30934;SDS011;51033;42.648;23.292;2023-04-01T07:10:17;11.00;;;5.10;;
30934;SDS011;51033;42.648;23.292;2023-04-01T07:12:58;15.65;;;6.40;;
30934;SDS011;51033;42.648;23.292;2023-04-01T07:15:35;9.98;;;6.30;;
30934;SDS011;51033;42.648;23.292;2023-04-01T07:20:39;19.30;;;6.35;;
30934;SDS011;51033;42.648;23.292;2023-04-01T07:23:38;10.20;;;5.88;;
30934;SDS011;51033;42.648;23.292;2023-04-01T07:26:23;12.98;;;6.70;;
30934;SDS011;51033;42.648;23.292;2023-04-01T07:28:50;12.55;;;6.22;;
30934;SDS011;51033;42.648;23.292;2023-04-01T07:42:22;12.75;;;6.00;;
30934;SDS011;51033;42.648;23.292;2023-04-01T07:50:54;10.98;;;6.90;;
30934;SDS011;51033;42.648;23.292;2023-04-01T07:53:31;9.75;;;5.65;;
30934;SDS011;51033;42.648;23.292;2023-04-01T07:56:10;11.02;;;6.22;;
30934;SDS011;51033;42.648;23.292;2023-04-01T08:07:21;10.60;;;6.47;;
30934;SDS011;51033;42.648;23.292;2023-04-01T08:09:54;10.98;;;6.65;;
30934;SDS011;51033;42.648;23.292;2023-04-01T08:12:25;15.07;;;7.07;;
30934;SDS011;51033;42.648;23.292;2023-04-01T08:26:07;11.63;;;6.38;;
30934;SDS011;51033;42.648;23.292;2023-04-01T08:31:13;18.15;;;6.90;;
30934;SDS011;51033;42.648;23.292;2023-04-01T08:33:44;35.08;;;11.38;;
30934;SDS011;51033;42.648;23.292;2023-04-01T08:36:17;13.32;;;6.47;;
30934;SDS011;51033;42.648;23.292;2023-04-01T08:38:53;15.32;;;8.80;;
30934;SDS011;51033;42.648;23.292;2023-04-01T08:50:01;12.73;;;5.47;;
30934;SDS011;51033;42.648;23.292;2023-04-01T09:37:17;8.45;;;3.85;;
30934;SDS011;51033;42.648;23.292;2023-04-01T09:42:43;15.02;;;3.92;;
30934;SDS011;51033;42.648;23.292;2023-04-01T09:45:37;11.07;;;3.42;;
30934;SDS011;51033;42.648;23.292;2023-04-01T09:49:13;9.68;;;2.42;;
30934;SDS011;51033;42.648;23.292;2023-04-01T09:51:50;13.40;;;2.58;;
30934;SDS011;51033;42.648;23.292;2023-04-01T10:33:25;5.05;;;1.48;;
30934;SDS011;51033;42.648;23.292;2023-04-01T10:36:25;10.68;;;3.22;;
30934;SDS011;51033;42.648;23.292;2023-04-01T10:58:39;7.80;;;2.60;;
30934;SDS011;51033;42.648;23.292;2023-04-01T11:19:36;8.27;;;1.90;;
30934;SDS011;51033;42.648;23.292;2023-04-01T11:31:10;9.90;;;4.78;;
30934;SDS011;51033;42.648;23.292;2023-04-01T11:50:44;7.03;;;3.07;;
30934;SDS011;51033;42.648;23.292;2023-04-01T12:06:32;8.00;;;3.60;;
30934;SDS011;51033;42.648;23.292;2023-04-01T12:32:05;4.95;;;2.58;;
30934;SDS011;51033;42.648;23.292;2023-04-01T12:45:38;6.53;;;3.67;;
30934;SDS011;51033;42.648;23.292;2023-04-01T12:51:26;11.52;;;6.78;;
30934;SDS011;51033;42.648;23.292;2023-04-01T12:59:58;5.38;;;3.55;;
30934;SDS011;51033;42.648;23.292;2023-04-01T13:02:48;4.95;;;4.45;;
30934;SDS011;51033;42.648;23.292;2023-04-01T13:05:34;4.38;;;2.85;;
30934;SDS011;51033;42.648;23.292;2023-04-01T13:16:14;3.63;;;1.30;;
30934;SDS011;51033;42.648;23.292;2023-04-01T13:18:51;3.92;;;2.05;;
30934;SDS011;51033;42.648;23.292;2023-04-01T13:21:54;3.10;;;2.05;;
30934;SDS011;51033;42.648;23.292;2023-04-01T13:27:17;4.50;;;1.92;;
30934;SDS011;51033;42.648;23.292;2023-04-01T13:30:13;5.93;;;4.40;;
30934;SDS011;51033;42.648;23.292;2023-04-01T13:44:06;2.90;;;1.13;;
30934;SDS011;51033;42.648;23.292;2023-04-01T14:20:10;3.03;;;1.35;;
30934;SDS011;51033;42.648;23.292;2023-04-01T14:36:28;1.48;;;1.00;;
30934;SDS011;51033;42.648;23.292;2023-04-01T14:42:01;1.60;;;0.90;;
30934;SDS011;51033;42.648;23.292;2023-04-01T14:45:00;2.47;;;1.50;;
30934;SDS011;51033;42.648;23.292;2023-04-01T14:50:15;3.38;;;1.15;;
30934;SDS011;51033;42.648;23.292;2023-04-01T14:58:10;1.60;;;1.05;;
30934;SDS011;51033;42.648;23.292;2023-04-01T15:04:06;2.50;;;0.90;;
30934;SDS011;51033;42.648;23.292;2023-04-01T15:06:54;1.52;;;0.93;;
30934;SDS011;51033;42.648;23.292;2023-04-01T15:17:16;3.97;;;1.35;;
30934;SDS011;51033;42.648;23.292;2023-04-01T15:20:02;1.30;;;1.20;;
30934;SDS011;51033;42.648;23.292;2023-04-01T15:22:43;1.88;;;1.10;;
30934;SDS011;51033;42.648;23.292;2023-04-01T15:28:28;3.70;;;1.85;;
30934;SDS011;51033;42.648;23.292;2023-04-01T16:12:35;1.23;;;1.00;;
30934;SDS011;51033;42.648;23.292;2023-04-01T16:15:14;1.83;;;1.30;;
30934;SDS011;51033;42.648;23.292;2023-04-01T16:20:38;2.22;;;1.40;;
30934;SDS011;51033;42.648;23.292;2023-04-01T16:23:49;3.20;;;1.70;;
30934;SDS011;51033;42.648;23.292;2023-04-01T16:34:54;1.52;;;1.40;;
30934;SDS011;51033;42.648;23.292;2023-04-01T16:37:38;3.85;;;2.38;;
30934;SDS011;51033;42.648;23.292;2023-04-01T16:40:23;2.03;;;1.40;;
30934;SDS011;51033;42.648;23.292;2023-04-01T16:45:37;9.00;;;4.10;;
30934;SDS011;51033;42.648;23.292;2023-04-01T16:48:14;7.25;;;3.58;;
30934;SDS011;51033;42.648;23.292;2023-04-01T16:51:00;2.03;;;1.33;;
30934;SDS011;51033;42.648;23.292;2023-04-01T16:56:11;8.38;;;6.80;;
30934;SDS011;51033;42.648;23.292;2023-04-01T16:58:56;4.63;;;4.07;;
30934;SDS011;51033;42.648;23.292;2023-04-01T17:01:29;2.92;;;2.22;;
30934;SDS011;51033;42.648;23.292;2023-04-01T17:04:07;3.60;;;2.67;;
30934;SDS011;51033;42.648;23.292;2023-04-01T17:14:29;1.60;;;1.50;;
30934;SDS011;51033;42.648;23.292;2023-04-01T17:17:08;3.58;;;3.03;;
30934;SDS011;51033;42.648;23.292;2023-04-01T17:19:45;2.22;;;1.90;;
30934;SDS011;51033;42.648;23.292;2023-04-01T17:22:40;2.03;;;1.70;;
30934;SDS011;51033;42.648;23.292;2023-04-01T17:30:32;3.00;;;1.95;;
30934;SDS011;51033;42.648;23.292;2023-04-01T17:36:16;1.63;;;1.50;;
30934;SDS011;51033;42.648;23.292;2023-04-01T17:50:14;2.22;;;2.03;;
30934;SDS011;51033;42.648;23.292;2023-04-01T17:52:56;1.75;;;1.65;;
30934;SDS011;51033;42.648;23.292;2023-04-01T17:55:54;1.88;;;1.77;;
30934;SDS011;51033;42.648;23.292;2023-04-01T17:58:38;4.72;;;3.20;;
30934;SDS011;51033;42.648;23.292;2023-04-01T18:06:34;2.80;;;2.22;;
30934;SDS011;51033;42.648;23.292;2023-04-01T18:20:07;2.80;;;2.20;;
30934;SDS011;51033;42.648;23.292;2023-04-01T18:22:44;3.08;;;2.78;;
30934;SDS011;51033;42.648;23.292;2023-04-01T18:27:47;2.35;;;1.60;;
30934;SDS011;51033;42.648;23.292;2023-04-01T18:30:18;2.45;;;2.13;;
30934;SDS011;51033;42.648;23.292;2023-04-01T18:33:02;3.80;;;2.72;;
30934;SDS011;51033;42.648;23.292;2023-04-01T18:35:54;2.28;;;2.08;;
30934;SDS011;51033;42.648;23.292;2023-04-01T18:38:31;2.80;;;1.70;;
30934;SDS011;51033;42.648;23.292;2023-04-01T18:41:35;1.90;;;1.80;;
30934;SDS011;51033;42.648;23.292;2023-04-01T18:49:21;2.50;;;2.10;;
30934;SDS011;51033;42.648;23.292;2023-04-01T18:51:59;8.18;;;5.20;;
30934;SDS011;51033;42.648;23.292;2023-04-01T18:54:43;2.55;;;1.92;;
30934;SDS011;51033;42.648;23.292;2023-04-01T18:57:15;2.78;;;1.90;;
30934;SDS011;51033;42.648;23.292;2023-04-01T19:02:39;2.10;;;1.88;;
30934;SDS011;51033;42.648;23.292;2023-04-01T19:05:16;1.67;;;1.58;;
30934;SDS011;51033;42.648;23.292;2023-04-01T19:07:51;1.50;;;1.40;;
30934;SDS011;51033;42.648;23.292;2023-04-01T19:10:37;3.03;;;1.60;;
30934;SDS011;51033;42.648;23.292;2023-04-01T19:13:17;4.40;;;3.00;;
30934;SDS011;51033;42.648;23.292;2023-04-01T19:21:29;1.40;;;1.30;;
30934;SDS011;51033;42.648;23.292;2023-04-01T19:29:38;1.73;;;1.63;;
30934;SDS011;51033;42.648;23.292;2023-04-01T19:41:54;2.88;;;2.65;;
30934;SDS011;51033;42.648;23.292;2023-04-01T19:47:13;2.65;;;1.70;;
30934;SDS011;51033;42.648;23.292;2023-04-01T20:03:11;5.47;;;3.47;;
30934;SDS011;51033;42.648;23.292;2023-04-01T20:06:02;7.43;;;4.82;;
30934;SDS011;51033;42.648;23.292;2023-04-01T20:14:36;2.97;;;2.65;;
30934;SDS011;51033;42.648;23.292;2023-04-01T20:20:23;3.97;;;3.58;;
30934;SDS011;51033;42.648;23.292;2023-04-01T20:28:20;3.53;;;2.97;;
30934;SDS011;51033;42.648;23.292;2023-04-01T20:36:21;1.58;;;1.48;;
30934;SDS011;51033;42.648;23.292;2023-04-01T20:41:34;2.42;;;1.95;;
30934;SDS011;51033;42.648;23.292;2023-04-01T20:44:33;2.53;;;2.33;;
30934;SDS011;51033;42.648;23.292;2023-04-01T20:53:04;3.15;;;1.48;;
30934;SDS011;51033;42.648;23.292;2023-04-01T21:03:43;2.97;;;2.25;;
30934;SDS011;51033;42.648;23.292;2023-04-01T21:06:31;3.22;;;1.40;;
30934;SDS011;51033;42.648;23.292;2023-04-01T21:23:00;3.30;;;1.83;;
30934;SDS011;51033;42.648;23.292;2023-04-01T21:57:22;1.35;;;1.25;;
30934;SDS011;51033;42.648;23.292;2023-04-01T21:59:57;1.23;;;1.13;;
30934;SDS011;51033;42.648;23.292;2023-04-01T22:05:20;4.00;;;1.30;;
30934;SDS011;51033;42.648;23.292;2023-04-01T22:10:39;1.08;;;0.98;;
30934;SDS011;51033;42.648;23.292;2023-04-01T22:13:16;0.90;;;0.90;;
30934;SDS011;51033;42.648;23.292;2023-04-01T22:18:34;2.33;;;0.90;;
30934;SDS011;51033;42.648;23.292;2023-04-01T22:24:01;1.10;;;1.00;;
30934;SDS011;51033;42.648;23.292;2023-04-01T22:29:31;1.45;;;0.90;;
30934;SDS011;51033;42.648;23.292;2023-04-01T22:32:08;2.38;;;1.00;;
30934;SDS011;51033;42.648;23.292;2023-04-01T22:37:45;0.80;;;0.80;;
30934;SDS011;51033;42.648;23.292;2023-04-01T22:40:25;0.75;;;0.73;;
30934;SDS011;51033;42.648;23.292;2023-04-01T22:43:00;1.88;;;1.20;;
30934;SDS011;51033;42.648;23.292;2023-04-01T22:45:37;1.95;;;1.10;;
30934;SDS011;51033;42.648;23.292;2023-04-01T22:50:39;1.38;;;1.08;;
30934;SDS011;51033;42.648;23.292;2023-04-01T22:56:05;0.73;;;0.70;;
30934;SDS011;51033;42.648;23.292;2023-04-01T22:58:38;3.78;;;1.10;;
30934;SDS011;51033;42.648;23.292;2023-04-01T23:01:10;2.30;;;1.10;;
30934;SDS011;51033;42.648;23.292;2023-04-01T23:03:41;1.05;;;0.90;;
30934;SDS011;51033;42.648;23.292;2023-04-01T23:06:16;0.82;;;0.80;;
30934;SDS011;51033;42.648;23.292;2023-04-01T23:08:54;0.90;;;0.80;;
30934;SDS011;51033;42.648;23.292;2023-04-01T23:11:53;2.13;;;0.80;;
30934;SDS011;51033;42.648;23.292;2023-04-01T23:19:52;1.13;;;0.98;;
30934;SDS011;51033;42.648;23.292;2023-04-01T23:35:50;0.82;;;0.65;;
30934;SDS011;51033;42.648;23.292;2023-04-01T23:38:18;0.60;;;0.60;;
30934;SDS011;51033;42.648;23.292;2023-04-01T23:40:49;1.40;;;0.70;;
30934;SDS011;51033;42.648;23.292;2023-04-01T23:43:24;0.70;;;0.70;;
30934;SDS011;51033;42.648;23.292;2023-04-01T23:45:55;3.17;;;0.88;;
30934;SDS011;51033;42.648;23.292;2023-04-01T23:48:24;1.60;;;0.70;;
30934;SDS011;51033;42.648;23.292;2023-04-01T23:51:18;2.05;;;0.70;;
30934;SDS011;51033;42.648;23.292;2023-04-01T23:56:46;1.38;;;1.00;;
30934;SDS011;51033;42.648;23.292;2023-04-01T23:59:18;1.00;;;0.80;;
